sensor_id;sensor_type;location;lat;lon;timestamp;temperature;humidity
3202;DHT22;34843;48.744;8.958;2022-09-01T00:00:26;13.60;99.90
3202;DHT22;34843;48.744;8.958;2022-09-01T00:02:54;13.60;99.90
3202;DHT22;34843;48.744;8.958;2022-09-01T00:05:20;13.60;99.90
3202;DHT22;34843;48.744;8.958;2022-09-01T00:07:46;13.50;99.90
3202;DHT22;34843;48.744;8.958;2022-09-01T00:10:12;13.60;99.90
3202;DHT22;34843;48.744;8.958;2022-09-01T00:12:38;13.60;99.90
3202;DHT22;34843;48.744;8.958;2022-09-01T00:15:06;13.60;99.90
3202;DHT22;34843;48.744;8.958;2022-09-01T00:17:31;13.50;99.90
3202;DHT22;34843;48.744;8.958;2022-09-01T00:19:58;13.50;99.90
3202;DHT22;34843;48.744;8.958;2022-09-01T00:22:23;13.60;99.90
3202;DHT22;34843;48.744;8.958;2022-09-01T00:24:49;13.50;99.90
3202;DHT22;34843;48.744;8.958;2022-09-01T00:27:14;13.60;99.90
3202;DHT22;34843;48.744;8.958;2022-09-01T00:29:40;13.50;99.90
3202;DHT22;34843;48.744;8.958;2022-09-01T00:32:05;13.50;99.90
3202;DHT22;34843;48.744;8.958;2022-09-01T00:34:31;13.60;99.90
3202;DHT22;34843;48.744;8.958;2022-09-01T00:36:56;13.50;99.90
3202;DHT22;34843;48.744;8.958;2022-09-01T00:39:22;13.50;99.90
3202;DHT22;34843;48.744;8.958;2022-09-01T00:41:47;13.50;99.90
3202;DHT22;34843;48.744;8.958;2022-09-01T00:44:17;13.50;99.90
3202;DHT22;34843;48.744;8.958;2022-09-01T00:46:46;13.40;99.90
3202;DHT22;34843;48.744;8.958;2022-09-01T00:51:43;13.30;99.90
3202;DHT22;34843;48.744;8.958;2022-09-01T00:54:13;13.30;99.90
3202;DHT22;34843;48.744;8.958;2022-09-01T00:56:40;13.40;99.90
3202;DHT22;34843;48.744;8.958;2022-09-01T00:59:08;13.20;99.90
3202;DHT22;34843;48.744;8.958;2022-09-01T01:01:36;13.20;99.90
3202;DHT22;34843;48.744;8.958;2022-09-01T01:04:04;13.20;99.90
3202;DHT22;34843;48.744;8.958;2022-09-01T01:06:29;13.20;99.90
3202;DHT22;34843;48.744;8.958;2022-09-01T01:08:58;13.10;99.90
3202;DHT22;34843;48.744;8.958;2022-09-01T01:11:28;13.20;99.90
3202;DHT22;34843;48.744;8.958;2022-09-01T01:13:59;13.20;99.90
3202;DHT22;34843;48.744;8.958;2022-09-01T01:16:27;13.20;99.90
3202;DHT22;34843;48.744;8.958;2022-09-01T01:18:54;13.10;99.90
3202;DHT22;34843;48.744;8.958;2022-09-01T01:21:35;13.10;99.90
3202;DHT22;34843;48.744;8.958;2022-09-01T01:24:33;13.10;99.90
3202;DHT22;34843;48.744;8.958;2022-09-01T01:27:00;13.00;99.90
3202;DHT22;34843;48.744;8.958;2022-09-01T01:29:35;13.10;99.90
3202;DHT22;34843;48.744;8.958;2022-09-01T01:32:04;13.10;99.90
3202;DHT22;34843;48.744;8.958;2022-09-01T01:34:36;13.10;99.90
3202;DHT22;34843;48.744;8.958;2022-09-01T01:37:04;13.10;99.90
3202;DHT22;34843;48.744;8.958;2022-09-01T01:39:29;13.00;99.90
3202;DHT22;34843;48.744;8.958;2022-09-01T01:41:56;13.00;99.90
3202;DHT22;34843;48.744;8.958;2022-09-01T01:44:25;13.00;99.90
3202;DHT22;34843;48.744;8.958;2022-09-01T01:46:54;13.10;99.90
3202;DHT22;34843;48.744;8.958;2022-09-01T01:49:23;13.00;99.90
3202;DHT22;34843;48.744;8.958;2022-09-01T01:51:51;12.90;99.90
3202;DHT22;34843;48.744;8.958;2022-09-01T01:54:21;12.90;99.90
3202;DHT22;34843;48.744;8.958;2022-09-01T01:56:47;12.80;99.90
3202;DHT22;34843;48.744;8.958;2022-09-01T01:59:13;12.80;99.90
3202;DHT22;34843;48.744;8.958;2022-09-01T02:01:39;12.80;99.90
3202;DHT22;34843;48.744;8.958;2022-09-01T02:04:07;12.70;99.90
3202;DHT22;34843;48.744;8.958;2022-09-01T02:06:34;12.80;99.90
3202;DHT22;34843;48.744;8.958;2022-09-01T02:09:01;12.70;99.90
3202;DHT22;34843;48.744;8.958;2022-09-01T02:11:29;12.60;99.90
3202;DHT22;34843;48.744;8.958;2022-09-01T02:13:58;12.60;99.90
3202;DHT22;34843;48.744;8.958;2022-09-01T02:16:26;12.60;99.90
3202;DHT22;34843;48.744;8.958;2022-09-01T02:18:52;12.50;99.90
3202;DHT22;34843;48.744;8.958;2022-09-01T02:21:20;12.50;99.90
3202;DHT22;34843;48.744;8.958;2022-09-01T02:23:49;12.50;99.90
3202;DHT22;34843;48.744;8.958;2022-09-01T02:26:15;12.60;99.90
3202;DHT22;34843;48.744;8.958;2022-09-01T02:28:43;12.50;99.90
3202;DHT22;34843;48.744;8.958;2022-09-01T02:31:10;12.50;99.90
3202;DHT22;34843;48.744;8.958;2022-09-01T02:33:37;12.50;99.90
3202;DHT22;34843;48.744;8.958;2022-09-01T02:36:08;13.80;99.90
3202;DHT22;34843;48.744;8.958;2022-09-01T02:38:35;12.40;99.90
3202;DHT22;34843;48.744;8.958;2022-09-01T02:41:01;12.40;99.90
3202;DHT22;34843;48.744;8.958;2022-09-01T02:43:28;12.40;99.90
3202;DHT22;34843;48.744;8.958;2022-09-01T02:45:57;12.50;99.90
3202;DHT22;34843;48.744;8.958;2022-09-01T02:50:52;12.50;99.90
3202;DHT22;34843;48.744;8.958;2022-09-01T02:53:18;12.50;99.90
3202;DHT22;34843;48.744;8.958;2022-09-01T02:55:44;12.50;99.90
3202;DHT22;34843;48.744;8.958;2022-09-01T02:58:09;12.50;99.90
3202;DHT22;34843;48.744;8.958;2022-09-01T03:00:43;12.50;99.90
3202;DHT22;34843;48.744;8.958;2022-09-01T03:03:09;12.40;99.90
3202;DHT22;34843;48.744;8.958;2022-09-01T03:05:37;12.30;99.90
3202;DHT22;34843;48.744;8.958;2022-09-01T03:08:06;12.20;99.90
3202;DHT22;34843;48.744;8.958;2022-09-01T03:10:37;12.20;99.90
3202;DHT22;34843;48.744;8.958;2022-09-01T03:13:24;12.30;99.90
3202;DHT22;34843;48.744;8.958;2022-09-01T03:15:51;12.20;99.90
3202;DHT22;34843;48.744;8.958;2022-09-01T03:18:16;12.20;99.90
3202;DHT22;34843;48.744;8.958;2022-09-01T03:20:46;12.20;99.90
3202;DHT22;34843;48.744;8.958;2022-09-01T03:23:15;12.10;99.90
3202;DHT22;34843;48.744;8.958;2022-09-01T03:25:42;12.10;99.90
3202;DHT22;34843;48.744;8.958;2022-09-01T03:28:08;12.00;99.90
3202;DHT22;34843;48.744;8.958;2022-09-01T03:30:35;12.10;99.90
3202;DHT22;34843;48.744;8.958;2022-09-01T03:33:05;12.10;99.90
3202;DHT22;34843;48.744;8.958;2022-09-01T03:35:31;12.00;99.90
3202;DHT22;34843;48.744;8.958;2022-09-01T03:37:58;12.00;99.90
3202;DHT22;34843;48.744;8.958;2022-09-01T03:40:26;11.90;99.90
3202;DHT22;34843;48.744;8.958;2022-09-01T03:42:54;12.00;99.90
3202;DHT22;34843;48.744;8.958;2022-09-01T03:45:19;12.10;99.90
3202;DHT22;34843;48.744;8.958;2022-09-01T03:47:45;12.10;99.90
3202;DHT22;34843;48.744;8.958;2022-09-01T03:50:16;12.00;99.90
3202;DHT22;34843;48.744;8.958;2022-09-01T03:52:55;11.90;99.90
3202;DHT22;34843;48.744;8.958;2022-09-01T03:55:27;11.90;99.90
3202;DHT22;34843;48.744;8.958;2022-09-01T03:57:55;12.00;99.90
3202;DHT22;34843;48.744;8.958;2022-09-01T04:00:23;12.00;99.90
3202;DHT22;34843;48.744;8.958;2022-09-01T04:02:51;12.00;99.90
3202;DHT22;34843;48.744;8.958;2022-09-01T04:05:21;12.00;99.90
3202;DHT22;34843;48.744;8.958;2022-09-01T04:07:50;12.00;99.90
3202;DHT22;34843;48.744;8.958;2022-09-01T04:10:17;12.00;99.90
3202;DHT22;34843;48.744;8.958;2022-09-01T04:12:44;12.00;99.90
3202;DHT22;34843;48.744;8.958;2022-09-01T04:15:11;12.00;99.90
3202;DHT22;34843;48.744;8.958;2022-09-01T04:17:38;12.00;99.90
3202;DHT22;34843;48.744;8.958;2022-09-01T04:20:22;11.90;99.90
3202;DHT22;34843;48.744;8.958;2022-09-01T04:22:48;11.90;99.90
3202;DHT22;34843;48.744;8.958;2022-09-01T04:25:15;11.90;99.90
3202;DHT22;34843;48.744;8.958;2022-09-01T04:27:41;11.90;99.90
3202;DHT22;34843;48.744;8.958;2022-09-01T04:30:11;11.90;99.90
3202;DHT22;34843;48.744;8.958;2022-09-01T04:32:36;11.90;99.90
3202;DHT22;34843;48.744;8.958;2022-09-01T04:35:03;11.90;99.90
3202;DHT22;34843;48.744;8.958;2022-09-01T04:37:29;11.90;99.90
3202;DHT22;34843;48.744;8.958;2022-09-01T04:39:56;12.00;99.90
3202;DHT22;34843;48.744;8.958;2022-09-01T04:42:23;12.00;99.90
3202;DHT22;34843;48.744;8.958;2022-09-01T04:44:50;12.00;99.90
3202;DHT22;34843;48.744;8.958;2022-09-01T04:47:17;11.90;99.90
3202;DHT22;34843;48.744;8.958;2022-09-01T04:49:47;11.90;99.90
3202;DHT22;34843;48.744;8.958;2022-09-01T04:52:13;11.90;99.90
3202;DHT22;34843;48.744;8.958;2022-09-01T04:54:39;11.90;99.90
3202;DHT22;34843;48.744;8.958;2022-09-01T04:57:04;11.90;99.90
3202;DHT22;34843;48.744;8.958;2022-09-01T04:59:31;11.90;99.90
3202;DHT22;34843;48.744;8.958;2022-09-01T05:01:58;12.00;99.90
3202;DHT22;34843;48.744;8.958;2022-09-01T05:04:27;12.10;99.90
3202;DHT22;34843;48.744;8.958;2022-09-01T05:06:55;12.10;99.90
3202;DHT22;34843;48.744;8.958;2022-09-01T05:09:27;12.10;99.90
3202;DHT22;34843;48.744;8.958;2022-09-01T05:11:53;12.20;99.90
3202;DHT22;34843;48.744;8.958;2022-09-01T05:14:19;12.20;99.90
3202;DHT22;34843;48.744;8.958;2022-09-01T05:16:46;12.30;99.90
3202;DHT22;34843;48.744;8.958;2022-09-01T05:19:13;12.50;99.90
3202;DHT22;34843;48.744;8.958;2022-09-01T05:21:43;12.70;99.90
3202;DHT22;34843;48.744;8.958;2022-09-01T05:24:11;12.90;99.90
3202;DHT22;34843;48.744;8.958;2022-09-01T05:26:37;13.00;99.90
3202;DHT22;34843;48.744;8.958;2022-09-01T05:29:05;13.20;99.90
3202;DHT22;34843;48.744;8.958;2022-09-01T05:31:35;13.50;99.90
3202;DHT22;34843;48.744;8.958;2022-09-01T05:34:03;13.60;99.90
3202;DHT22;34843;48.744;8.958;2022-09-01T05:36:29;13.80;99.90
3202;DHT22;34843;48.744;8.958;2022-09-01T05:38:59;14.00;99.90
3202;DHT22;34843;48.744;8.958;2022-09-01T05:41:25;14.30;99.90
3202;DHT22;34843;48.744;8.958;2022-09-01T05:43:51;14.50;99.90
3202;DHT22;34843;48.744;8.958;2022-09-01T05:46:20;14.90;99.90
3202;DHT22;34843;48.744;8.958;2022-09-01T05:48:48;15.50;99.90
3202;DHT22;34843;48.744;8.958;2022-09-01T05:51:16;16.10;99.90
3202;DHT22;34843;48.744;8.958;2022-09-01T05:53:45;17.00;99.90
3202;DHT22;34843;48.744;8.958;2022-09-01T05:56:10;17.00;99.90
3202;DHT22;34843;48.744;8.958;2022-09-01T05:58:38;17.50;99.90
3202;DHT22;34843;48.744;8.958;2022-09-01T06:01:05;17.90;99.90
3202;DHT22;34843;48.744;8.958;2022-09-01T06:03:30;18.30;99.90
3202;DHT22;34843;48.744;8.958;2022-09-01T06:06:02;18.70;99.90
3202;DHT22;34843;48.744;8.958;2022-09-01T06:08:29;19.10;99.90
3202;DHT22;34843;48.744;8.958;2022-09-01T06:10:55;19.40;99.90
3202;DHT22;34843;48.744;8.958;2022-09-01T06:13:20;19.60;99.90
3202;DHT22;34843;48.744;8.958;2022-09-01T06:15:47;19.80;99.90
3202;DHT22;34843;48.744;8.958;2022-09-01T06:18:13;20.00;99.90
3202;DHT22;34843;48.744;8.958;2022-09-01T06:20:41;20.20;99.90
3202;DHT22;34843;48.744;8.958;2022-09-01T06:23:07;20.40;99.90
3202;DHT22;34843;48.744;8.958;2022-09-01T06:25:36;20.60;99.90
3202;DHT22;34843;48.744;8.958;2022-09-01T06:28:02;20.80;99.90
3202;DHT22;34843;48.744;8.958;2022-09-01T06:30:29;20.70;99.90
3202;DHT22;34843;48.744;8.958;2022-09-01T06:32:55;20.90;99.90
3202;DHT22;34843;48.744;8.958;2022-09-01T06:35:23;21.00;99.90
3202;DHT22;34843;48.744;8.958;2022-09-01T06:37:53;21.20;99.90
3202;DHT22;34843;48.744;8.958;2022-09-01T06:40:21;21.30;99.90
3202;DHT22;34843;48.744;8.958;2022-09-01T06:42:50;21.50;99.90
3202;DHT22;34843;48.744;8.958;2022-09-01T06:45:18;21.70;99.90
3202;DHT22;34843;48.744;8.958;2022-09-01T06:47:45;21.90;99.90
3202;DHT22;34843;48.744;8.958;2022-09-01T06:50:14;22.10;99.90
3202;DHT22;34843;48.744;8.958;2022-09-01T06:52:41;22.10;99.90
3202;DHT22;34843;48.744;8.958;2022-09-01T06:55:09;21.90;99.90
3202;DHT22;34843;48.744;8.958;2022-09-01T06:57:35;21.40;99.90
3202;DHT22;34843;48.744;8.958;2022-09-01T07:00:06;20.90;99.90
3202;DHT22;34843;48.744;8.958;2022-09-01T07:02:43;20.60;99.90
3202;DHT22;34843;48.744;8.958;2022-09-01T07:05:09;20.20;99.90
3202;DHT22;34843;48.744;8.958;2022-09-01T07:07:34;19.70;99.90
3202;DHT22;34843;48.744;8.958;2022-09-01T07:10:03;19.30;99.90
3202;DHT22;34843;48.744;8.958;2022-09-01T07:12:29;19.00;99.90
3202;DHT22;34843;48.744;8.958;2022-09-01T07:14:56;18.60;99.90
3202;DHT22;34843;48.744;8.958;2022-09-01T07:17:23;18.40;99.90
3202;DHT22;34843;48.744;8.958;2022-09-01T07:19:49;18.20;99.90
3202;DHT22;34843;48.744;8.958;2022-09-01T07:22:15;18.10;99.90
3202;DHT22;34843;48.744;8.958;2022-09-01T07:24:41;18.00;99.90
3202;DHT22;34843;48.744;8.958;2022-09-01T07:27:06;17.90;99.90
3202;DHT22;34843;48.744;8.958;2022-09-01T07:29:33;17.90;99.90
3202;DHT22;34843;48.744;8.958;2022-09-01T07:31:59;17.90;99.90
3202;DHT22;34843;48.744;8.958;2022-09-01T07:34:25;17.80;99.90
3202;DHT22;34843;48.744;8.958;2022-09-01T07:36:51;18.00;99.90
3202;DHT22;34843;48.744;8.958;2022-09-01T07:39:23;18.20;99.90
3202;DHT22;34843;48.744;8.958;2022-09-01T07:41:48;18.40;99.90
3202;DHT22;34843;48.744;8.958;2022-09-01T07:44:14;18.60;99.90
3202;DHT22;34843;48.744;8.958;2022-09-01T07:46:40;18.60;99.90
3202;DHT22;34843;48.744;8.958;2022-09-01T07:49:06;18.80;99.90
3202;DHT22;34843;48.744;8.958;2022-09-01T07:51:32;18.90;99.90
3202;DHT22;34843;48.744;8.958;2022-09-01T07:53:59;18.80;99.90
3202;DHT22;34843;48.744;8.958;2022-09-01T07:56:27;18.90;99.90
3202;DHT22;34843;48.744;8.958;2022-09-01T07:58:54;18.90;99.90
3202;DHT22;34843;48.744;8.958;2022-09-01T08:01:23;19.00;99.90
3202;DHT22;34843;48.744;8.958;2022-09-01T08:03:52;18.90;99.90
3202;DHT22;34843;48.744;8.958;2022-09-01T08:06:20;18.90;99.90
3202;DHT22;34843;48.744;8.958;2022-09-01T08:08:49;18.80;99.90
3202;DHT22;34843;48.744;8.958;2022-09-01T08:11:25;18.70;99.90
3202;DHT22;34843;48.744;8.958;2022-09-01T08:13:52;18.60;99.90
3202;DHT22;34843;48.744;8.958;2022-09-01T08:16:18;18.60;99.90
3202;DHT22;34843;48.744;8.958;2022-09-01T08:18:45;18.70;99.90
3202;DHT22;34843;48.744;8.958;2022-09-01T08:21:12;18.60;99.90
3202;DHT22;34843;48.744;8.958;2022-09-01T08:23:39;18.50;99.90
3202;DHT22;34843;48.744;8.958;2022-09-01T08:26:10;18.50;99.90
3202;DHT22;34843;48.744;8.958;2022-09-01T08:28:36;18.40;99.90
3202;DHT22;34843;48.744;8.958;2022-09-01T08:31:09;18.40;99.90
3202;DHT22;34843;48.744;8.958;2022-09-01T08:33:36;18.30;99.90
3202;DHT22;34843;48.744;8.958;2022-09-01T08:36:03;18.30;99.90
3202;DHT22;34843;48.744;8.958;2022-09-01T08:38:31;18.40;99.90
3202;DHT22;34843;48.744;8.958;2022-09-01T08:40:57;18.40;99.90
3202;DHT22;34843;48.744;8.958;2022-09-01T08:46:34;18.20;99.90
3202;DHT22;34843;48.744;8.958;2022-09-01T08:49:05;18.20;99.90
3202;DHT22;34843;48.744;8.958;2022-09-01T08:51:37;18.30;99.90
3202;DHT22;34843;48.744;8.958;2022-09-01T08:54:12;18.70;99.90
3202;DHT22;34843;48.744;8.958;2022-09-01T08:56:40;18.70;99.90
3202;DHT22;34843;48.744;8.958;2022-09-01T08:59:07;18.80;99.90
3202;DHT22;34843;48.744;8.958;2022-09-01T09:07:07;19.30;99.90
3202;DHT22;34843;48.744;8.958;2022-09-01T09:09:49;19.10;99.90
3202;DHT22;34843;48.744;8.958;2022-09-01T09:17:44;18.80;99.90
3202;DHT22;34843;48.744;8.958;2022-09-01T09:20:10;18.80;99.90
3202;DHT22;34843;48.744;8.958;2022-09-01T09:22:36;18.90;99.90
3202;DHT22;34843;48.744;8.958;2022-09-01T09:25:13;19.00;99.90
3202;DHT22;34843;48.744;8.958;2022-09-01T09:27:42;19.00;99.90
3202;DHT22;34843;48.744;8.958;2022-09-01T09:30:20;19.20;99.90
3202;DHT22;34843;48.744;8.958;2022-09-01T09:32:55;19.30;99.90
3202;DHT22;34843;48.744;8.958;2022-09-01T09:35:42;19.60;99.90
3202;DHT22;34843;48.744;8.958;2022-09-01T09:43:26;20.00;99.90
3202;DHT22;34843;48.744;8.958;2022-09-01T09:48:46;20.20;99.90
3202;DHT22;34843;48.744;8.958;2022-09-01T09:51:21;20.30;99.90
3202;DHT22;34843;48.744;8.958;2022-09-01T09:53:47;20.40;99.90
3202;DHT22;34843;48.744;8.958;2022-09-01T09:56:19;20.40;99.90
3202;DHT22;34843;48.744;8.958;2022-09-01T09:58:46;20.50;99.90
3202;DHT22;34843;48.744;8.958;2022-09-01T10:03:50;20.20;99.90
3202;DHT22;34843;48.744;8.958;2022-09-01T10:06:41;20.30;99.90
3202;DHT22;34843;48.744;8.958;2022-09-01T10:11:55;19.90;99.90
3202;DHT22;34843;48.744;8.958;2022-09-01T10:14:37;20.00;99.90
3202;DHT22;34843;48.744;8.958;2022-09-01T10:17:20;19.90;99.90
3202;DHT22;34843;48.744;8.958;2022-09-01T10:19:52;20.10;99.90
3202;DHT22;34843;48.744;8.958;2022-09-01T10:22:20;20.30;99.90
3202;DHT22;34843;48.744;8.958;2022-09-01T10:24:46;20.60;99.90
3202;DHT22;34843;48.744;8.958;2022-09-01T10:27:21;20.70;99.90
3202;DHT22;34843;48.744;8.958;2022-09-01T10:29:56;20.80;99.90
3202;DHT22;34843;48.744;8.958;2022-09-01T10:32:31;20.80;99.90
3202;DHT22;34843;48.744;8.958;2022-09-01T10:34:58;20.50;99.90
3202;DHT22;34843;48.744;8.958;2022-09-01T10:37:25;20.70;99.90
3202;DHT22;34843;48.744;8.958;2022-09-01T10:40:11;20.80;99.90
3202;DHT22;34843;48.744;8.958;2022-09-01T10:42:38;20.90;99.90
3202;DHT22;34843;48.744;8.958;2022-09-01T10:45:04;20.60;99.90
3202;DHT22;34843;48.744;8.958;2022-09-01T10:47:33;20.40;99.90
3202;DHT22;34843;48.744;8.958;2022-09-01T10:50:21;20.40;99.90
3202;DHT22;34843;48.744;8.958;2022-09-01T10:55:27;20.30;99.90
3202;DHT22;34843;48.744;8.958;2022-09-01T11:05:58;20.10;99.90
3202;DHT22;34843;48.744;8.958;2022-09-01T11:13:48;20.50;99.90
3202;DHT22;34843;48.744;8.958;2022-09-01T11:16:38;20.80;99.90
3202;DHT22;34843;48.744;8.958;2022-09-01T11:22:31;20.80;99.90
3202;DHT22;34843;48.744;8.958;2022-09-01T11:33:20;21.20;99.90
3202;DHT22;34843;48.744;8.958;2022-09-01T11:36:05;21.10;99.90
3202;DHT22;34843;48.744;8.958;2022-09-01T11:38:50;21.10;99.90
3202;DHT22;34843;48.744;8.958;2022-09-01T11:41:25;21.30;99.90
3202;DHT22;34843;48.744;8.958;2022-09-01T11:43:55;21.50;99.90
3202;DHT22;34843;48.744;8.958;2022-09-01T11:46:33;21.70;99.90
3202;DHT22;34843;48.744;8.958;2022-09-01T11:49:07;21.80;99.90
3202;DHT22;34843;48.744;8.958;2022-09-01T11:51:46;21.60;99.90
3202;DHT22;34843;48.744;8.958;2022-09-01T11:54:12;21.50;99.90
3202;DHT22;34843;48.744;8.958;2022-09-01T11:56:38;21.40;99.90
3202;DHT22;34843;48.744;8.958;2022-09-01T11:59:04;21.30;99.90
3202;DHT22;34843;48.744;8.958;2022-09-01T12:01:32;21.30;99.90
3202;DHT22;34843;48.744;8.958;2022-09-01T12:04:20;21.30;99.90
3202;DHT22;34843;48.744;8.958;2022-09-01T12:06:56;21.50;99.90
3202;DHT22;34843;48.744;8.958;2022-09-01T12:09:37;21.70;99.90
3202;DHT22;34843;48.744;8.958;2022-09-01T12:12:07;21.80;99.90
3202;DHT22;34843;48.744;8.958;2022-09-01T12:14:55;21.80;99.90
3202;DHT22;34843;48.744;8.958;2022-09-01T12:17:21;21.80;99.90
3202;DHT22;34843;48.744;8.958;2022-09-01T12:19:47;21.90;99.90
3202;DHT22;34843;48.744;8.958;2022-09-01T12:22:16;22.00;99.90
3202;DHT22;34843;48.744;8.958;2022-09-01T12:24:50;22.20;99.90
3202;DHT22;34843;48.744;8.958;2022-09-01T12:27:17;22.50;99.90
3202;DHT22;34843;48.744;8.958;2022-09-01T12:29:43;22.50;99.90
3202;DHT22;34843;48.744;8.958;2022-09-01T12:32:09;22.30;99.90
3202;DHT22;34843;48.744;8.958;2022-09-01T12:34:39;21.90;99.90
3202;DHT22;34843;48.744;8.958;2022-09-01T12:39:50;21.50;99.90
3202;DHT22;34843;48.744;8.958;2022-09-01T12:44:59;21.20;99.90
3202;DHT22;34843;48.744;8.958;2022-09-01T12:50:03;21.50;99.90
3202;DHT22;34843;48.744;8.958;2022-09-01T12:52:31;21.50;99.90
3202;DHT22;34843;48.744;8.958;2022-09-01T12:57:50;21.40;99.90
3202;DHT22;34843;48.744;8.958;2022-09-01T13:00:25;21.30;99.90
3202;DHT22;34843;48.744;8.958;2022-09-01T13:03:10;21.20;99.90
3202;DHT22;34843;48.744;8.958;2022-09-01T13:05:43;21.20;99.90
3202;DHT22;34843;48.744;8.958;2022-09-01T13:08:11;21.10;99.90
3202;DHT22;34843;48.744;8.958;2022-09-01T13:10:49;21.20;99.90
3202;DHT22;34843;48.744;8.958;2022-09-01T13:13:16;21.20;99.90
3202;DHT22;34843;48.744;8.958;2022-09-01T13:15:45;21.40;99.90
3202;DHT22;34843;48.744;8.958;2022-09-01T13:18:16;21.50;99.90
3202;DHT22;34843;48.744;8.958;2022-09-01T13:20:42;21.80;99.90
3202;DHT22;34843;48.744;8.958;2022-09-01T13:23:08;21.90;99.90
3202;DHT22;34843;48.744;8.958;2022-09-01T13:25:34;22.00;99.90
3202;DHT22;34843;48.744;8.958;2022-09-01T13:28:00;22.20;99.90
3202;DHT22;34843;48.744;8.958;2022-09-01T13:30:27;22.40;99.90
3202;DHT22;34843;48.744;8.958;2022-09-01T13:32:55;22.60;99.90
3202;DHT22;34843;48.744;8.958;2022-09-01T13:35:21;22.70;99.90
3202;DHT22;34843;48.744;8.958;2022-09-01T13:37:48;22.60;99.90
3202;DHT22;34843;48.744;8.958;2022-09-01T13:40:16;22.40;99.90
3202;DHT22;34843;48.744;8.958;2022-09-01T13:42:42;22.10;99.90
3202;DHT22;34843;48.744;8.958;2022-09-01T13:45:09;21.90;99.90
3202;DHT22;34843;48.744;8.958;2022-09-01T13:47:40;21.90;99.90
3202;DHT22;34843;48.744;8.958;2022-09-01T13:50:07;21.80;99.90
3202;DHT22;34843;48.744;8.958;2022-09-01T13:52:33;21.80;99.90
3202;DHT22;34843;48.744;8.958;2022-09-01T13:54:59;21.90;99.90
3202;DHT22;34843;48.744;8.958;2022-09-01T13:57:26;21.90;99.90
3202;DHT22;34843;48.744;8.958;2022-09-01T13:59:51;21.90;99.90
3202;DHT22;34843;48.744;8.958;2022-09-01T14:02:17;21.90;99.90
3202;DHT22;34843;48.744;8.958;2022-09-01T14:04:42;21.80;99.90
3202;DHT22;34843;48.744;8.958;2022-09-01T14:07:08;21.60;99.90
3202;DHT22;34843;48.744;8.958;2022-09-01T14:09:34;21.50;99.90
3202;DHT22;34843;48.744;8.958;2022-09-01T14:11:59;21.50;99.90
3202;DHT22;34843;48.744;8.958;2022-09-01T14:14:25;21.50;99.90
3202;DHT22;34843;48.744;8.958;2022-09-01T14:16:51;21.40;99.90
3202;DHT22;34843;48.744;8.958;2022-09-01T14:19:16;21.40;99.90
3202;DHT22;34843;48.744;8.958;2022-09-01T14:21:43;21.50;99.90
3202;DHT22;34843;48.744;8.958;2022-09-01T14:24:08;21.60;99.90
3202;DHT22;34843;48.744;8.958;2022-09-01T14:26:34;21.60;99.90
3202;DHT22;34843;48.744;8.958;2022-09-01T14:29:00;21.60;99.90
3202;DHT22;34843;48.744;8.958;2022-09-01T14:31:27;21.70;99.90
3202;DHT22;34843;48.744;8.958;2022-09-01T14:33:54;21.70;99.90
3202;DHT22;34843;48.744;8.958;2022-09-01T14:38:48;21.90;99.90
3202;DHT22;34843;48.744;8.958;2022-09-01T14:41:17;21.80;99.90
3202;DHT22;34843;48.744;8.958;2022-09-01T14:43:47;21.70;99.90
3202;DHT22;34843;48.744;8.958;2022-09-01T14:46:14;21.70;99.90
3202;DHT22;34843;48.744;8.958;2022-09-01T14:48:40;21.70;99.90
3202;DHT22;34843;48.744;8.958;2022-09-01T14:51:07;21.60;99.90
3202;DHT22;34843;48.744;8.958;2022-09-01T14:53:33;21.60;99.90
3202;DHT22;34843;48.744;8.958;2022-09-01T14:56:00;21.50;99.90
3202;DHT22;34843;48.744;8.958;2022-09-01T14:58:27;21.50;99.90
3202;DHT22;34843;48.744;8.958;2022-09-01T15:00:54;21.50;99.90
3202;DHT22;34843;48.744;8.958;2022-09-01T15:03:23;21.50;99.90
3202;DHT22;34843;48.744;8.958;2022-09-01T15:05:51;21.50;99.90
3202;DHT22;34843;48.744;8.958;2022-09-01T15:08:16;21.60;99.90
3202;DHT22;34843;48.744;8.958;2022-09-01T15:10:42;21.60;99.90
3202;DHT22;34843;48.744;8.958;2022-09-01T15:13:08;21.60;99.90
3202;DHT22;34843;48.744;8.958;2022-09-01T15:15:33;21.50;99.90
3202;DHT22;34843;48.744;8.958;2022-09-01T15:18:00;21.50;99.90
3202;DHT22;34843;48.744;8.958;2022-09-01T15:20:26;21.50;99.90
3202;DHT22;34843;48.744;8.958;2022-09-01T15:23:11;21.50;99.90
3202;DHT22;34843;48.744;8.958;2022-09-01T15:25:36;21.60;99.90
3202;DHT22;34843;48.744;8.958;2022-09-01T15:28:03;21.60;99.90
3202;DHT22;34843;48.744;8.958;2022-09-01T15:30:29;21.70;99.90
3202;DHT22;34843;48.744;8.958;2022-09-01T15:32:55;21.70;99.90
3202;DHT22;34843;48.744;8.958;2022-09-01T15:35:21;21.70;99.90
3202;DHT22;34843;48.744;8.958;2022-09-01T15:37:48;21.80;99.90
3202;DHT22;34843;48.744;8.958;2022-09-01T15:40:14;21.80;99.90
3202;DHT22;34843;48.744;8.958;2022-09-01T15:42:40;21.90;99.90
3202;DHT22;34843;48.744;8.958;2022-09-01T15:45:12;21.90;99.90
3202;DHT22;34843;48.744;8.958;2022-09-01T15:47:39;21.90;99.90
3202;DHT22;34843;48.744;8.958;2022-09-01T15:50:07;21.80;99.90
3202;DHT22;34843;48.744;8.958;2022-09-01T15:52:33;21.80;99.90
3202;DHT22;34843;48.744;8.958;2022-09-01T15:54:59;21.70;99.90
3202;DHT22;34843;48.744;8.958;2022-09-01T15:57:25;21.70;99.90
3202;DHT22;34843;48.744;8.958;2022-09-01T15:59:51;21.70;99.90
3202;DHT22;34843;48.744;8.958;2022-09-01T16:02:17;21.70;99.90
3202;DHT22;34843;48.744;8.958;2022-09-01T16:04:46;21.70;99.90
3202;DHT22;34843;48.744;8.958;2022-09-01T16:07:11;21.70;99.90
3202;DHT22;34843;48.744;8.958;2022-09-01T16:09:36;21.70;99.90
3202;DHT22;34843;48.744;8.958;2022-09-01T16:12:03;21.70;99.90
3202;DHT22;34843;48.744;8.958;2022-09-01T16:14:28;21.70;99.90
3202;DHT22;34843;48.744;8.958;2022-09-01T16:17:10;21.70;99.90
3202;DHT22;34843;48.744;8.958;2022-09-01T16:19:58;21.70;99.90
3202;DHT22;34843;48.744;8.958;2022-09-01T16:22:42;21.60;99.90
3202;DHT22;34843;48.744;8.958;2022-09-01T16:25:17;21.60;99.90
3202;DHT22;34843;48.744;8.958;2022-09-01T16:27:48;21.50;99.90
3202;DHT22;34843;48.744;8.958;2022-09-01T16:30:19;21.50;99.90
3202;DHT22;34843;48.744;8.958;2022-09-01T16:32:47;21.40;99.90
3202;DHT22;34843;48.744;8.958;2022-09-01T16:35:14;21.40;99.90
3202;DHT22;34843;48.744;8.958;2022-09-01T16:40:58;21.40;99.90
3202;DHT22;34843;48.744;8.958;2022-09-01T16:43:32;21.40;99.90
3202;DHT22;34843;48.744;8.958;2022-09-01T16:46:10;21.40;99.90
3202;DHT22;34843;48.744;8.958;2022-09-01T16:48:43;21.40;99.90
3202;DHT22;34843;48.744;8.958;2022-09-01T16:51:28;21.40;99.90
3202;DHT22;34843;48.744;8.958;2022-09-01T16:59:51;21.10;99.90
3202;DHT22;34843;48.744;8.958;2022-09-01T17:05:00;20.90;99.90
3202;DHT22;34843;48.744;8.958;2022-09-01T17:07:36;20.90;99.90
3202;DHT22;34843;48.744;8.958;2022-09-01T17:10:29;20.80;99.90
3202;DHT22;34843;48.744;8.958;2022-09-01T17:13:13;20.80;99.90
3202;DHT22;34843;48.744;8.958;2022-09-01T17:15:42;20.80;99.90
3202;DHT22;34843;48.744;8.958;2022-09-01T17:18:20;20.80;99.90
3202;DHT22;34843;48.744;8.958;2022-09-01T17:20:55;20.70;99.90